sensor_id;sensor_type;location;lat;lon;timestamp;pressure;altitude;pressure_sealevel;temperature;humidity
46598;BME280;32318;48.858;8.252;2023-02-11T00:01:39;102447.81;;;0.08;71.67
46598;BME280;32318;48.858;8.252;2023-02-11T00:09:39;102449.66;;;0.05;71.90
46598;BME280;32318;48.858;8.252;2023-02-11T00:17:39;102452.38;;;0.02;72.22
46598;BME280;32318;48.858;8.252;2023-02-11T00:25:44;102452.44;;;-0.02;72.27
46598;BME280;32318;48.858;8.252;2023-02-11T00:33:45;102443.66;;;-0.01;72.14
46598;BME280;32318;48.858;8.252;2023-02-11T00:41:45;102438.47;;;-0.02;72.28
46598;BME280;32318;48.858;8.252;2023-02-11T00:49:45;102440.19;;;-0.01;72.27
46598;BME280;32318;48.858;8.252;2023-02-11T00:57:46;102438.47;;;-0.04;72.44
46598;BME280;32318;48.858;8.252;2023-02-11T01:05:46;102430.84;;;-0.13;73.09
46598;BME280;32318;48.858;8.252;2023-02-11T01:13:47;102428.16;;;-0.10;73.05
46598;BME280;32318;48.858;8.252;2023-02-11T01:21:48;102408.03;;;-0.09;72.44
46598;BME280;32318;48.858;8.252;2023-02-11T01:29:48;102390.41;;;-0.06;73.21
46598;BME280;32318;48.858;8.252;2023-02-11T01:37:48;102393.06;;;-0.07;73.35
46598;BME280;32318;48.858;8.252;2023-02-11T01:45:59;102397.28;;;0.00;73.70
46598;BME280;32318;48.858;8.252;2023-02-11T01:54:04;102384.09;;;0.02;72.99
46598;BME280;32318;48.858;8.252;2023-02-11T02:10:49;102372.94;;;-0.07;73.96
46598;BME280;32318;48.858;8.252;2023-02-11T02:27:18;102371.91;;;-0.01;74.58
46598;BME280;32318;48.858;8.252;2023-02-11T02:43:26;102353.78;;;-0.10;74.21
46598;BME280;32318;48.858;8.252;2023-02-11T02:51:34;102357.22;;;-0.08;74.87
46598;BME280;32318;48.858;8.252;2023-02-11T03:16:08;102327.78;;;-0.20;75.02
46598;BME280;32318;48.858;8.252;2023-02-11T03:24:15;102338.41;;;-0.24;75.57
46598;BME280;32318;48.858;8.252;2023-02-11T03:32:25;102333.28;;;-0.29;75.61
46598;BME280;32318;48.858;8.252;2023-02-11T03:40:28;102313.25;;;-0.32;76.51
46598;BME280;32318;48.858;8.252;2023-02-11T03:48:39;102316.72;;;-0.31;76.37
46598;BME280;32318;48.858;8.252;2023-02-11T03:56:48;102321.84;;;-0.26;76.41
46598;BME280;32318;48.858;8.252;2023-02-11T04:04:50;102349.69;;;-0.21;76.17
46598;BME280;32318;48.858;8.252;2023-02-11T04:12:50;102349.63;;;-0.19;76.44
46598;BME280;32318;48.858;8.252;2023-02-11T04:20:51;102333.09;;;-0.23;76.41
46598;BME280;32318;48.858;8.252;2023-02-11T04:28:57;102319.91;;;-0.20;76.68
46598;BME280;32318;48.858;8.252;2023-02-11T04:36:57;102316.38;;;-0.19;76.46
46598;BME280;32318;48.858;8.252;2023-02-11T04:44:58;102326.75;;;-0.14;76.33
46598;BME280;32318;48.858;8.252;2023-02-11T04:53:01;102328.59;;;-0.18;75.95
46598;BME280;32318;48.858;8.252;2023-02-11T05:01:09;102317.34;;;-0.23;75.99
46598;BME280;32318;48.858;8.252;2023-02-11T05:09:11;102298.22;;;-0.26;76.33
46598;BME280;32318;48.858;8.252;2023-02-11T05:17:11;102275.53;;;-0.29;76.91
46598;BME280;32318;48.858;8.252;2023-02-11T05:25:11;102271.38;;;-0.36;76.82
46598;BME280;32318;48.858;8.252;2023-02-11T05:33:12;102261.03;;;-0.42;77.09
46598;BME280;32318;48.858;8.252;2023-02-11T05:41:13;102266.31;;;-0.44;76.54
46598;BME280;32318;48.858;8.252;2023-02-11T05:49:13;102255.06;;;-0.48;77.92
46598;BME280;32318;48.858;8.252;2023-02-11T05:57:14;102273.25;;;-0.41;77.52
46598;BME280;32318;48.858;8.252;2023-02-11T06:05:15;102276.69;;;-0.39;77.94
46598;BME280;32318;48.858;8.252;2023-02-11T06:13:15;102291.53;;;-0.38;77.65
46598;BME280;32318;48.858;8.252;2023-02-11T06:21:17;102286.28;;;-0.38;77.77
46598;BME280;32318;48.858;8.252;2023-02-11T06:29:17;102305.50;;;-0.36;77.53
46598;BME280;32318;48.858;8.252;2023-02-11T06:37:18;102310.75;;;-0.36;77.89
46598;BME280;32318;48.858;8.252;2023-02-11T06:45:18;102295.00;;;-0.36;78.26
46598;BME280;32318;48.858;8.252;2023-02-11T06:53:19;102283.50;;;-0.32;77.93
46598;BME280;32318;48.858;8.252;2023-02-11T07:01:20;102283.34;;;-0.27;78.19
46598;BME280;32318;48.858;8.252;2023-02-11T07:09:21;102294.75;;;-0.27;78.55
46598;BME280;32318;48.858;8.252;2023-02-11T07:17:21;102294.47;;;-0.18;78.41
46598;BME280;32318;48.858;8.252;2023-02-11T07:25:22;102292.56;;;-0.12;78.82
46598;BME280;32318;48.858;8.252;2023-02-11T07:33:22;102312.28;;;0.03;77.61
46598;BME280;32318;48.858;8.252;2023-02-11T07:41:24;102338.22;;;0.13;77.14
46598;BME280;32318;48.858;8.252;2023-02-11T07:49:24;102340.53;;;0.24;76.80
46598;BME280;32318;48.858;8.252;2023-02-11T07:57:24;102338.66;;;0.29;76.45
46598;BME280;32318;48.858;8.252;2023-02-11T08:05:25;102345.38;;;0.38;76.18
46598;BME280;32318;48.858;8.252;2023-02-11T08:13:25;102345.09;;;0.47;75.56
46598;BME280;32318;48.858;8.252;2023-02-11T08:21:26;102337.22;;;0.47;75.42
46598;BME280;32318;48.858;8.252;2023-02-11T08:29:27;102328.50;;;0.47;74.75
46598;BME280;32318;48.858;8.252;2023-02-11T08:37:27;102327.63;;;0.46;74.88
46598;BME280;32318;48.858;8.252;2023-02-11T08:45:27;102322.94;;;0.56;75.28
46598;BME280;32318;48.858;8.252;2023-02-11T08:53:28;102329.47;;;0.71;75.05
46598;BME280;32318;48.858;8.252;2023-02-11T09:01:30;102319.63;;;0.78;74.27
46598;BME280;32318;48.858;8.252;2023-02-11T09:09:31;102307.25;;;0.82;73.46
46598;BME280;32318;48.858;8.252;2023-02-11T09:17:31;102306.34;;;0.83;73.96
46598;BME280;32318;48.858;8.252;2023-02-11T09:25:38;102302.19;;;1.02;73.74
46598;BME280;32318;48.858;8.252;2023-02-11T09:33:39;102286.25;;;1.32;73.38
46598;BME280;32318;48.858;8.252;2023-02-11T09:41:57;102304.25;;;1.70;73.13
46598;BME280;32318;48.858;8.252;2023-02-11T09:50:10;102308.25;;;2.04;70.78
46598;BME280;32318;48.858;8.252;2023-02-11T09:58:13;102312.47;;;2.33;70.11
46598;BME280;32318;48.858;8.252;2023-02-11T10:06:27;102319.44;;;2.57;70.15
46598;BME280;32318;48.858;8.252;2023-02-11T10:14:38;102317.50;;;2.84;68.45
46598;BME280;32318;48.858;8.252;2023-02-11T10:22:51;102327.56;;;3.17;68.08
46598;BME280;32318;48.858;8.252;2023-02-11T10:31:01;102314.94;;;3.46;66.08
46598;BME280;32318;48.858;8.252;2023-02-11T10:39:28;102324.94;;;3.58;66.75
46598;BME280;32318;48.858;8.252;2023-02-11T10:47:34;102301.84;;;3.64;65.86
46598;BME280;32318;48.858;8.252;2023-02-11T10:55:48;102301.19;;;3.77;66.45
46598;BME280;32318;48.858;8.252;2023-02-11T11:03:51;102274.31;;;3.88;66.23
46598;BME280;32318;48.858;8.252;2023-02-11T11:11:52;102267.88;;;4.13;65.47
46598;BME280;32318;48.858;8.252;2023-02-11T11:28:20;102269.19;;;4.60;65.20
46598;BME280;32318;48.858;8.252;2023-02-11T11:36:29;102257.28;;;4.86;65.71
46598;BME280;32318;48.858;8.252;2023-02-11T11:44:36;102255.44;;;5.06;65.32
46598;BME280;32318;48.858;8.252;2023-02-11T11:52:46;102250.22;;;5.22;65.84
46598;BME280;32318;48.858;8.252;2023-02-11T12:17:46;102253.84;;;5.71;65.37
46598;BME280;32318;48.858;8.252;2023-02-11T12:26:06;102250.44;;;5.85;64.75
46598;BME280;32318;48.858;8.252;2023-02-11T12:51:31;102232.28;;;6.26;64.91
46598;BME280;32318;48.858;8.252;2023-02-11T12:59:59;102215.75;;;6.37;63.84
46598;BME280;32318;48.858;8.252;2023-02-11T13:08:10;102200.50;;;6.41;64.34
46598;BME280;32318;48.858;8.252;2023-02-11T13:16:35;102201.69;;;6.51;63.96
46598;BME280;32318;48.858;8.252;2023-02-11T13:24:45;102189.59;;;6.62;64.71
46598;BME280;32318;48.858;8.252;2023-02-11T13:49:03;102192.03;;;6.95;64.53
46598;BME280;32318;48.858;8.252;2023-02-11T14:05:29;102199.09;;;7.11;63.31
46598;BME280;32318;48.858;8.252;2023-02-11T14:21:52;102191.78;;;7.43;64.09
46598;BME280;32318;48.858;8.252;2023-02-11T14:46:34;102172.91;;;7.62;63.46
46598;BME280;32318;48.858;8.252;2023-02-11T14:54:35;102167.59;;;7.62;63.80
46598;BME280;32318;48.858;8.252;2023-02-11T15:02:36;102178.22;;;7.62;63.36
46598;BME280;32318;48.858;8.252;2023-02-11T15:10:41;102168.72;;;7.58;63.51
46598;BME280;32318;48.858;8.252;2023-02-11T15:18:49;102183.53;;;7.62;64.10
46598;BME280;32318;48.858;8.252;2023-02-11T15:26:57;102186.78;;;7.95;64.18
46598;BME280;32318;48.858;8.252;2023-02-11T15:34:58;102188.06;;;8.16;62.99
46598;BME280;32318;48.858;8.252;2023-02-11T15:43:03;102187.81;;;8.34;63.45
46598;BME280;32318;48.858;8.252;2023-02-11T15:51:18;102199.94;;;8.38;62.16
46598;BME280;32318;48.858;8.252;2023-02-11T15:59:26;102203.66;;;8.36;63.77
46598;BME280;32318;48.858;8.252;2023-02-11T16:07:45;102196.22;;;8.28;62.21
46598;BME280;32318;48.858;8.252;2023-02-11T16:16:14;102219.47;;;8.24;62.98
46598;BME280;32318;48.858;8.252;2023-02-11T16:24:19;102232.59;;;8.27;61.89
46598;BME280;32318;48.858;8.252;2023-02-11T16:32:25;102228.34;;;8.52;64.07
46598;BME280;32318;48.858;8.252;2023-02-11T16:40:26;102241.47;;;8.55;63.41
46598;BME280;32318;48.858;8.252;2023-02-11T16:48:26;102240.31;;;8.45;62.78
46598;BME280;32318;48.858;8.252;2023-02-11T16:56:27;102250.72;;;8.35;63.52
46598;BME280;32318;48.858;8.252;2023-02-11T17:04:29;102254.75;;;8.28;62.43
46598;BME280;32318;48.858;8.252;2023-02-11T17:12:32;102258.47;;;8.11;64.31
46598;BME280;32318;48.858;8.252;2023-02-11T17:20:32;102255.16;;;8.07;64.17
46598;BME280;32318;48.858;8.252;2023-02-11T17:28:33;102242.56;;;7.96;63.50
46598;BME280;32318;48.858;8.252;2023-02-11T17:36:33;102268.69;;;7.90;64.13
46598;BME280;32318;48.858;8.252;2023-02-11T17:44:34;102260.81;;;7.88;65.17
46598;BME280;32318;48.858;8.252;2023-02-11T17:52:34;102269.72;;;7.44;65.21
46598;BME280;32318;48.858;8.252;2023-02-11T18:00:35;102270.28;;;7.34;65.85
46598;BME280;32318;48.858;8.252;2023-02-11T18:08:36;102270.66;;;7.28;65.90
46598;BME280;32318;48.858;8.252;2023-02-11T18:16:36;102279.25;;;7.17;66.75
46598;BME280;32318;48.858;8.252;2023-02-11T18:24:38;102277.75;;;7.13;66.57
46598;BME280;32318;48.858;8.252;2023-02-11T18:32:38;102286.94;;;7.07;66.70
46598;BME280;32318;48.858;8.252;2023-02-11T18:40:39;102279.09;;;6.90;66.85
46598;BME280;32318;48.858;8.252;2023-02-11T18:48:40;102292.63;;;6.85;67.55
46598;BME280;32318;48.858;8.252;2023-02-11T18:56:41;102295.47;;;6.82;67.61
46598;BME280;32318;48.858;8.252;2023-02-11T19:04:41;102315.19;;;6.78;68.33
46598;BME280;32318;48.858;8.252;2023-02-11T19:12:41;102300.28;;;6.75;68.51
46598;BME280;32318;48.858;8.252;2023-02-11T19:20:42;102309.88;;;6.78;68.34
46598;BME280;32318;48.858;8.252;2023-02-11T19:28:43;102301.22;;;6.74;68.80
46598;BME280;32318;48.858;8.252;2023-02-11T19:36:44;102287.97;;;6.74;68.82
46598;BME280;32318;48.858;8.252;2023-02-11T19:44:44;102293.44;;;6.71;68.57
46598;BME280;32318;48.858;8.252;2023-02-11T19:52:45;102299.16;;;6.64;68.45
46598;BME280;32318;48.858;8.252;2023-02-11T20:00:45;102287.13;;;6.58;69.30
46598;BME280;32318;48.858;8.252;2023-02-11T20:08:45;102277.72;;;6.52;68.75
46598;BME280;32318;48.858;8.252;2023-02-11T20:16:45;102286.09;;;6.44;68.67
46598;BME280;32318;48.858;8.252;2023-02-11T20:24:46;102286.81;;;6.32;69.53
46598;BME280;32318;48.858;8.252;2023-02-11T20:32:46;102291.59;;;6.25;69.03
46598;BME280;32318;48.858;8.252;2023-02-11T20:40:47;102291.22;;;6.16;69.19
46598;BME280;32318;48.858;8.252;2023-02-11T20:48:47;102298.84;;;6.06;69.32
46598;BME280;32318;48.858;8.252;2023-02-11T20:56:49;102302.66;;;6.00;70.06
46598;BME280;32318;48.858;8.252;2023-02-11T21:04:52;102302.97;;;5.94;69.97
46598;BME280;32318;48.858;8.252;2023-02-11T21:12:53;102311.19;;;5.89;70.57
46598;BME280;32318;48.858;8.252;2023-02-11T21:20:53;102300.81;;;5.85;70.44
46598;BME280;32318;48.858;8.252;2023-02-11T21:28:54;102306.28;;;5.81;70.48
46598;BME280;32318;48.858;8.252;2023-02-11T21:36:54;102302.25;;;5.74;70.62
46598;BME280;32318;48.858;8.252;2023-02-11T21:44:54;102313.47;;;5.79;70.34
46598;BME280;32318;48.858;8.252;2023-02-11T21:52:54;102313.63;;;5.76;70.37
46598;BME280;32318;48.858;8.252;2023-02-11T22:00:55;102313.72;;;5.75;71.01
46598;BME280;32318;48.858;8.252;2023-02-11T22:08:55;102317.22;;;5.75;70.61
46598;BME280;32318;48.858;8.252;2023-02-11T22:16:56;102316.38;;;5.75;70.76
46598;BME280;32318;48.858;8.252;2023-02-11T22:24:56;102324.13;;;5.78;70.62
46598;BME280;32318;48.858;8.252;2023-02-11T22:32:59;102319.72;;;5.78;70.70
46598;BME280;32318;48.858;8.252;2023-02-11T22:41:04;102341.22;;;5.72;71.55
46598;BME280;32318;48.858;8.252;2023-02-11T22:49:05;102342.41;;;5.67;70.79
46598;BME280;32318;48.858;8.252;2023-02-11T22:57:06;102344.97;;;5.68;71.76
46598;BME280;32318;48.858;8.252;2023-02-11T23:05:06;102346.59;;;5.71;71.66
46598;BME280;32318;48.858;8.252;2023-02-11T23:13:07;102339.53;;;5.71;71.92
46598;BME280;32318;48.858;8.252;2023-02-11T23:21:13;102336.88;;;5.71;71.25
46598;BME280;32318;48.858;8.252;2023-02-11T23:29:15;102342.66;;;5.62;71.40
46598;BME280;32318;48.858;8.252;2023-02-11T23:37:15;102345.47;;;5.59;71.43
46598;BME280;32318;48.858;8.252;2023-02-11T23:45:16;102344.06;;;5.52;72.35
46598;BME280;32318;48.858;8.252;2023-02-11T23:53:16;102331.84;;;5.49;72.45
